sensor_id;sensor_type;location;lat;lon;timestamp;pressure;altitude;pressure_sealevel;temperature;humidity
70833;BME280;71099;59.528;17.886;2024-02-26T00:00:29;100467.53;;;0.30;88.29
70833;BME280;71099;59.528;17.886;2024-02-26T00:02:56;100453.72;;;0.20;87.42
70833;BME280;71099;59.528;17.886;2024-02-26T00:05:21;100468.47;;;0.29;88.61
70833;BME280;71099;59.528;17.886;2024-02-26T00:07:47;100467.47;;;0.31;87.81
70833;BME280;71099;59.528;17.886;2024-02-26T00:10:13;100470.00;;;0.31;88.52
70833;BME280;71099;59.528;17.886;2024-02-26T00:12:39;100467.22;;;0.36;87.75
70833;BME280;71099;59.528;17.886;2024-02-26T00:15:06;100463.38;;;0.29;88.55
70833;BME280;71099;59.528;17.886;2024-02-26T00:17:32;100475.91;;;0.32;88.48
70833;BME280;71099;59.528;17.886;2024-02-26T00:19:57;100481.03;;;0.30;88.17
70833;BME280;71099;59.528;17.886;2024-02-26T00:22:22;100486.94;;;0.31;88.44
70833;BME280;71099;59.528;17.886;2024-02-26T00:24:48;100473.91;;;0.37;88.56
70833;BME280;71099;59.528;17.886;2024-02-26T00:27:13;100487.19;;;0.42;88.20
70833;BME280;71099;59.528;17.886;2024-02-26T00:29:39;100490.38;;;0.45;88.70
70833;BME280;71099;59.528;17.886;2024-02-26T00:32:05;100485.13;;;0.48;88.71
70833;BME280;71099;59.528;17.886;2024-02-26T00:34:30;100496.28;;;0.46;88.76
70833;BME280;71099;59.528;17.886;2024-02-26T00:36:56;100495.09;;;0.52;88.16
70833;BME280;71099;59.528;17.886;2024-02-26T00:39:21;100491.78;;;0.51;88.06
70833;BME280;71099;59.528;17.886;2024-02-26T00:41:47;100492.66;;;0.50;88.33
70833;BME280;71099;59.528;17.886;2024-02-26T00:44:12;100494.13;;;0.54;88.71
70833;BME280;71099;59.528;17.886;2024-02-26T00:46:38;100498.16;;;0.58;88.76
70833;BME280;71099;59.528;17.886;2024-02-26T00:49:03;100492.31;;;0.56;88.77
70833;BME280;71099;59.528;17.886;2024-02-26T00:51:29;100496.44;;;0.59;88.93
70833;BME280;71099;59.528;17.886;2024-02-26T00:53:54;100496.25;;;0.62;88.32
70833;BME280;71099;59.528;17.886;2024-02-26T00:56:21;100484.47;;;0.61;88.87
70833;BME280;71099;59.528;17.886;2024-02-26T00:58:47;100487.56;;;0.66;88.53
70833;BME280;71099;59.528;17.886;2024-02-26T01:01:12;100478.22;;;0.66;88.38
70833;BME280;71099;59.528;17.886;2024-02-26T01:03:37;100481.09;;;0.60;89.22
70833;BME280;71099;59.528;17.886;2024-02-26T01:06:03;100472.84;;;0.41;89.66
70833;BME280;71099;59.528;17.886;2024-02-26T01:08:28;100482.34;;;0.53;89.55
70833;BME280;71099;59.528;17.886;2024-02-26T01:10:54;100483.00;;;0.57;89.93
70833;BME280;71099;59.528;17.886;2024-02-26T01:13:19;100481.75;;;0.48;90.38
70833;BME280;71099;59.528;17.886;2024-02-26T01:15:45;100483.34;;;0.51;90.40
70833;BME280;71099;59.528;17.886;2024-02-26T01:18:11;100488.00;;;0.58;90.56
70833;BME280;71099;59.528;17.886;2024-02-26T01:20:37;100478.38;;;0.63;90.56
70833;BME280;71099;59.528;17.886;2024-02-26T01:23:02;100494.03;;;0.71;90.94
70833;BME280;71099;59.528;17.886;2024-02-26T01:25:27;100492.94;;;0.75;90.72
70833;BME280;71099;59.528;17.886;2024-02-26T01:27:53;100501.16;;;0.80;90.33
70833;BME280;71099;59.528;17.886;2024-02-26T01:30:18;100495.31;;;0.78;90.63
70833;BME280;71099;59.528;17.886;2024-02-26T01:32:44;100499.16;;;0.85;90.67
70833;BME280;71099;59.528;17.886;2024-02-26T01:35:09;100494.81;;;0.87;90.49
70833;BME280;71099;59.528;17.886;2024-02-26T01:37:37;100500.38;;;0.94;90.21
70833;BME280;71099;59.528;17.886;2024-02-26T01:40:03;100494.28;;;0.96;90.46
70833;BME280;71099;59.528;17.886;2024-02-26T01:42:30;100494.09;;;0.99;90.49
70833;BME280;71099;59.528;17.886;2024-02-26T01:44:56;100498.94;;;1.04;90.54
70833;BME280;71099;59.528;17.886;2024-02-26T01:47:22;100493.59;;;1.09;90.72
70833;BME280;71099;59.528;17.886;2024-02-26T01:49:48;100495.97;;;1.12;90.60
70833;BME280;71099;59.528;17.886;2024-02-26T01:52:14;100495.97;;;1.12;90.67
70833;BME280;71099;59.528;17.886;2024-02-26T01:54:40;100491.88;;;1.09;90.67
70833;BME280;71099;59.528;17.886;2024-02-26T01:57:08;100488.78;;;1.04;90.70
70833;BME280;71099;59.528;17.886;2024-02-26T01:59:34;100484.91;;;1.13;91.21
70833;BME280;71099;59.528;17.886;2024-02-26T02:02:03;100484.53;;;1.19;90.91
70833;BME280;71099;59.528;17.886;2024-02-26T02:04:30;100474.81;;;1.11;90.36
70833;BME280;71099;59.528;17.886;2024-02-26T02:06:57;100476.91;;;1.19;91.25
70833;BME280;71099;59.528;17.886;2024-02-26T02:09:23;100473.84;;;1.14;91.05
70833;BME280;71099;59.528;17.886;2024-02-26T02:11:49;100478.59;;;1.04;91.22
70833;BME280;71099;59.528;17.886;2024-02-26T02:14:15;100467.28;;;1.10;91.62
70833;BME280;71099;59.528;17.886;2024-02-26T02:16:40;100468.56;;;1.17;91.87
70833;BME280;71099;59.528;17.886;2024-02-26T02:19:06;100471.81;;;1.19;91.84
70833;BME280;71099;59.528;17.886;2024-02-26T02:21:31;100470.91;;;1.06;91.50
70833;BME280;71099;59.528;17.886;2024-02-26T02:23:56;100457.06;;;0.95;92.47
70833;BME280;71099;59.528;17.886;2024-02-26T02:26:22;100456.97;;;0.83;92.77
70833;BME280;71099;59.528;17.886;2024-02-26T02:28:48;100451.25;;;0.79;94.14
70833;BME280;71099;59.528;17.886;2024-02-26T02:31:15;100457.59;;;0.86;93.71
70833;BME280;71099;59.528;17.886;2024-02-26T02:33:41;100445.72;;;0.87;94.00
70833;BME280;71099;59.528;17.886;2024-02-26T02:36:06;100454.88;;;0.89;94.21
70833;BME280;71099;59.528;17.886;2024-02-26T02:38:36;100445.38;;;0.93;94.60
70833;BME280;71099;59.528;17.886;2024-02-26T02:41:02;100444.72;;;0.89;94.25
70833;BME280;71099;59.528;17.886;2024-02-26T02:43:27;100441.47;;;0.87;94.73
70833;BME280;71099;59.528;17.886;2024-02-26T02:45:52;100442.66;;;0.96;94.40
70833;BME280;71099;59.528;17.886;2024-02-26T02:48:18;100442.38;;;1.01;94.51
70833;BME280;71099;59.528;17.886;2024-02-26T02:50:43;100444.56;;;1.07;94.83
70833;BME280;71099;59.528;17.886;2024-02-26T02:53:08;100443.66;;;1.08;94.70
70833;BME280;71099;59.528;17.886;2024-02-26T02:55:34;100439.47;;;0.92;94.75
70833;BME280;71099;59.528;17.886;2024-02-26T02:57:59;100446.00;;;0.96;94.66
70833;BME280;71099;59.528;17.886;2024-02-26T03:00:25;100444.53;;;0.92;95.01
70833;BME280;71099;59.528;17.886;2024-02-26T03:02:50;100439.84;;;1.01;95.33
70833;BME280;71099;59.528;17.886;2024-02-26T03:05:16;100449.31;;;0.98;95.66
70833;BME280;71099;59.528;17.886;2024-02-26T03:07:41;100442.63;;;0.82;95.41
70833;BME280;71099;59.528;17.886;2024-02-26T03:10:07;100448.34;;;0.85;95.64
70833;BME280;71099;59.528;17.886;2024-02-26T03:12:33;100446.81;;;0.83;95.93
70833;BME280;71099;59.528;17.886;2024-02-26T03:14:59;100448.97;;;0.89;96.31
70833;BME280;71099;59.528;17.886;2024-02-26T03:17:28;100451.19;;;0.95;96.27
70833;BME280;71099;59.528;17.886;2024-02-26T03:19:53;100448.00;;;0.91;96.32
70833;BME280;71099;59.528;17.886;2024-02-26T03:22:19;100458.06;;;0.93;96.10
70833;BME280;71099;59.528;17.886;2024-02-26T03:24:46;100453.44;;;0.99;95.76
70833;BME280;71099;59.528;17.886;2024-02-26T03:27:11;100457.81;;;0.97;95.94
70833;BME280;71099;59.528;17.886;2024-02-26T03:29:38;100451.09;;;0.96;96.22
70833;BME280;71099;59.528;17.886;2024-02-26T03:32:04;100458.31;;;0.88;96.05
70833;BME280;71099;59.528;17.886;2024-02-26T03:34:30;100466.88;;;0.87;95.92
70833;BME280;71099;59.528;17.886;2024-02-26T03:36:56;100457.41;;;0.75;96.19
70833;BME280;71099;59.528;17.886;2024-02-26T03:39:21;100461.00;;;0.71;96.75
70833;BME280;71099;59.528;17.886;2024-02-26T03:41:48;100460.13;;;0.72;96.76
70833;BME280;71099;59.528;17.886;2024-02-26T03:44:13;100455.94;;;0.71;97.03
70833;BME280;71099;59.528;17.886;2024-02-26T03:46:39;100448.72;;;0.64;97.08
70833;BME280;71099;59.528;17.886;2024-02-26T03:49:04;100451.88;;;0.53;97.17
70833;BME280;71099;59.528;17.886;2024-02-26T03:51:30;100441.13;;;0.64;98.13
70833;BME280;71099;59.528;17.886;2024-02-26T03:53:59;100445.25;;;0.80;98.22
70833;BME280;71099;59.528;17.886;2024-02-26T03:56:25;100442.16;;;0.75;97.51
70833;BME280;71099;59.528;17.886;2024-02-26T03:58:51;100442.34;;;0.72;97.74
70833;BME280;71099;59.528;17.886;2024-02-26T04:01:16;100451.81;;;0.84;97.55
70833;BME280;71099;59.528;17.886;2024-02-26T04:03:42;100451.28;;;0.93;98.05
70833;BME280;71099;59.528;17.886;2024-02-26T04:06:11;100454.38;;;0.98;97.23
70833;BME280;71099;59.528;17.886;2024-02-26T04:08:37;100454.00;;;1.05;97.32
70833;BME280;71099;59.528;17.886;2024-02-26T04:11:03;100462.34;;;1.07;97.06
70833;BME280;71099;59.528;17.886;2024-02-26T04:13:35;100472.19;;;1.13;96.95
70833;BME280;71099;59.528;17.886;2024-02-26T04:16:03;100464.53;;;0.98;96.56
70833;BME280;71099;59.528;17.886;2024-02-26T04:18:29;100463.06;;;0.94;97.25
70833;BME280;71099;59.528;17.886;2024-02-26T04:20:55;100462.63;;;0.88;97.57
70833;BME280;71099;59.528;17.886;2024-02-26T04:23:20;100471.66;;;0.92;97.92
70833;BME280;71099;59.528;17.886;2024-02-26T04:25:45;100462.66;;;0.72;98.01
70833;BME280;71099;59.528;17.886;2024-02-26T04:28:12;100457.56;;;0.72;98.78
70833;BME280;71099;59.528;17.886;2024-02-26T04:30:37;100452.03;;;0.66;99.36
70833;BME280;71099;59.528;17.886;2024-02-26T04:33:03;100459.03;;;0.76;99.76
70833;BME280;71099;59.528;17.886;2024-02-26T04:35:29;100455.31;;;0.82;99.68
70833;BME280;71099;59.528;17.886;2024-02-26T04:37:54;100458.53;;;0.70;99.47
70833;BME280;71099;59.528;17.886;2024-02-26T04:40:20;100455.00;;;0.58;100.00
70833;BME280;71099;59.528;17.886;2024-02-26T04:42:45;100453.34;;;0.57;100.00
70833;BME280;71099;59.528;17.886;2024-02-26T04:45:11;100456.28;;;0.65;100.00
70833;BME280;71099;59.528;17.886;2024-02-26T04:47:36;100452.03;;;0.66;100.00
70833;BME280;71099;59.528;17.886;2024-02-26T04:50:01;100455.09;;;0.71;100.00
70833;BME280;71099;59.528;17.886;2024-02-26T04:52:27;100461.22;;;0.82;100.00
70833;BME280;71099;59.528;17.886;2024-02-26T04:54:53;100466.50;;;0.93;100.00
70833;BME280;71099;59.528;17.886;2024-02-26T04:57:18;100465.25;;;1.01;100.00
70833;BME280;71099;59.528;17.886;2024-02-26T04:59:44;100473.97;;;1.11;100.00
70833;BME280;71099;59.528;17.886;2024-02-26T05:02:11;100476.19;;;1.17;100.00
70833;BME280;71099;59.528;17.886;2024-02-26T05:04:37;100477.53;;;1.22;100.00
70833;BME280;71099;59.528;17.886;2024-02-26T05:07:02;100478.00;;;1.29;99.80
70833;BME280;71099;59.528;17.886;2024-02-26T05:09:28;100476.72;;;1.22;99.19
70833;BME280;71099;59.528;17.886;2024-02-26T05:11:54;100469.38;;;1.17;99.19
70833;BME280;71099;59.528;17.886;2024-02-26T05:14:19;100473.47;;;1.20;98.68
70833;BME280;71099;59.528;17.886;2024-02-26T05:16:44;100480.34;;;1.18;98.30
70833;BME280;71099;59.528;17.886;2024-02-26T05:19:10;100474.53;;;1.02;97.88
70833;BME280;71099;59.528;17.886;2024-02-26T05:21:36;100471.97;;;1.02;98.29
70833;BME280;71099;59.528;17.886;2024-02-26T05:24:02;100476.53;;;1.11;98.17
70833;BME280;71099;59.528;17.886;2024-02-26T05:26:27;100476.63;;;1.09;98.01
70833;BME280;71099;59.528;17.886;2024-02-26T05:28:52;100474.53;;;1.02;98.07
70833;BME280;71099;59.528;17.886;2024-02-26T05:31:19;100476.81;;;1.06;97.84
70833;BME280;71099;59.528;17.886;2024-02-26T05:33:44;100479.06;;;1.11;98.00
70833;BME280;71099;59.528;17.886;2024-02-26T05:36:10;100483.81;;;1.17;97.61
70833;BME280;71099;59.528;17.886;2024-02-26T05:38:35;100488.72;;;1.20;97.57
70833;BME280;71099;59.528;17.886;2024-02-26T05:41:01;100490.38;;;1.21;97.21
70833;BME280;71099;59.528;17.886;2024-02-26T05:43:26;100487.72;;;1.22;97.40
70833;BME280;71099;59.528;17.886;2024-02-26T05:45:52;100492.16;;;1.19;97.09
70833;BME280;71099;59.528;17.886;2024-02-26T05:48:18;100489.72;;;1.17;96.65
70833;BME280;71099;59.528;17.886;2024-02-26T05:50:45;100492.91;;;1.21;96.41
70833;BME280;71099;59.528;17.886;2024-02-26T05:53:10;100493.97;;;1.17;96.00
70833;BME280;71099;59.528;17.886;2024-02-26T05:55:36;100490.69;;;1.15;95.92
70833;BME280;71099;59.528;17.886;2024-02-26T05:58:01;100499.06;;;1.17;96.39
70833;BME280;71099;59.528;17.886;2024-02-26T06:00:26;100498.88;;;1.20;96.20
70833;BME280;71099;59.528;17.886;2024-02-26T06:02:52;100500.53;;;1.21;95.83
70833;BME280;71099;59.528;17.886;2024-02-26T06:05:17;100501.31;;;1.21;95.68
70833;BME280;71099;59.528;17.886;2024-02-26T06:07:43;100498.75;;;1.07;95.54
70833;BME280;71099;59.528;17.886;2024-02-26T06:10:08;100494.84;;;1.02;96.34
70833;BME280;71099;59.528;17.886;2024-02-26T06:12:37;100498.84;;;1.06;96.19
70833;BME280;71099;59.528;17.886;2024-02-26T06:15:03;100514.09;;;1.06;96.31
70833;BME280;71099;59.528;17.886;2024-02-26T06:17:29;100509.75;;;1.08;96.00
70833;BME280;71099;59.528;17.886;2024-02-26T06:19:54;100504.66;;;1.08;95.89
70833;BME280;71099;59.528;17.886;2024-02-26T06:22:20;100508.91;;;1.07;95.95
70833;BME280;71099;59.528;17.886;2024-02-26T06:24:45;100510.09;;;1.02;95.87
70833;BME280;71099;59.528;17.886;2024-02-26T06:27:11;100509.44;;;0.98;96.05
70833;BME280;71099;59.528;17.886;2024-02-26T06:29:37;100516.59;;;0.91;96.29
70833;BME280;71099;59.528;17.886;2024-02-26T06:32:03;100517.69;;;0.87;96.08
70833;BME280;71099;59.528;17.886;2024-02-26T06:34:28;100514.91;;;0.76;96.29
70833;BME280;71099;59.528;17.886;2024-02-26T06:36:54;100525.75;;;0.64;97.64
70833;BME280;71099;59.528;17.886;2024-02-26T06:39:19;100525.56;;;0.67;98.09
70833;BME280;71099;59.528;17.886;2024-02-26T06:41:45;100521.47;;;0.80;98.02
70833;BME280;71099;59.528;17.886;2024-02-26T06:44:13;100521.94;;;0.87;98.66
70833;BME280;71099;59.528;17.886;2024-02-26T06:46:38;100524.91;;;0.79;98.51
70833;BME280;71099;59.528;17.886;2024-02-26T06:49:04;100522.94;;;0.84;99.07
70833;BME280;71099;59.528;17.886;2024-02-26T06:51:30;100518.34;;;0.75;99.53
70833;BME280;71099;59.528;17.886;2024-02-26T06:53:55;100523.59;;;0.72;99.95
70833;BME280;71099;59.528;17.886;2024-02-26T06:56:20;100525.56;;;0.67;100.00
70833;BME280;71099;59.528;17.886;2024-02-26T06:58:46;100525.38;;;0.70;100.00
70833;BME280;71099;59.528;17.886;2024-02-26T07:01:12;100535.06;;;0.79;100.00
70833;BME280;71099;59.528;17.886;2024-02-26T07:03:40;100538.00;;;0.87;100.00
70833;BME280;71099;59.528;17.886;2024-02-26T07:06:05;100539.47;;;0.91;100.00
70833;BME280;71099;59.528;17.886;2024-02-26T07:08:31;100539.19;;;0.96;100.00
70833;BME280;71099;59.528;17.886;2024-02-26T07:10:56;100535.50;;;1.02;100.00
70833;BME280;71099;59.528;17.886;2024-02-26T07:13:21;100538.44;;;1.10;100.00
70833;BME280;71099;59.528;17.886;2024-02-26T07:15:47;100540.06;;;1.11;100.00
70833;BME280;71099;59.528;17.886;2024-02-26T07:18:12;100527.75;;;1.19;100.00
70833;BME280;71099;59.528;17.886;2024-02-26T07:20:38;100538.22;;;1.28;100.00
70833;BME280;71099;59.528;17.886;2024-02-26T07:23:03;100545.38;;;1.36;100.00
70833;BME280;71099;59.528;17.886;2024-02-26T07:25:29;100550.31;;;1.39;100.00
70833;BME280;71099;59.528;17.886;2024-02-26T07:27:54;100545.03;;;1.42;100.00
70833;BME280;71099;59.528;17.886;2024-02-26T07:30:20;100553.56;;;1.41;100.00
70833;BME280;71099;59.528;17.886;2024-02-26T07:32:45;100558.03;;;1.37;100.00
70833;BME280;71099;59.528;17.886;2024-02-26T07:35:11;100562.59;;;1.46;100.00
70833;BME280;71099;59.528;17.886;2024-02-26T07:37:36;100556.78;;;1.59;100.00
70833;BME280;71099;59.528;17.886;2024-02-26T07:40:02;100558.88;;;1.66;100.00
70833;BME280;71099;59.528;17.886;2024-02-26T07:42:28;100562.50;;;1.62;100.00
70833;BME280;71099;59.528;17.886;2024-02-26T07:44:54;100556.44;;;1.65;100.00
70833;BME280;71099;59.528;17.886;2024-02-26T07:47:19;100561.41;;;1.66;100.00
70833;BME280;71099;59.528;17.886;2024-02-26T07:49:45;100563.25;;;1.78;100.00
70833;BME280;71099;59.528;17.886;2024-02-26T07:52:10;100560.78;;;1.77;100.00
70833;BME280;71099;59.528;17.886;2024-02-26T07:54:35;100559.06;;;1.91;100.00
70833;BME280;71099;59.528;17.886;2024-02-26T07:57:01;100563.25;;;2.07;100.00
70833;BME280;71099;59.528;17.886;2024-02-26T07:59:30;100568.25;;;2.08;100.00
70833;BME280;71099;59.528;17.886;2024-02-26T08:01:56;100572.69;;;2.19;100.00
70833;BME280;71099;59.528;17.886;2024-02-26T08:04:21;100572.69;;;2.19;100.00
70833;BME280;71099;59.528;17.886;2024-02-26T08:06:46;100585.78;;;2.27;100.00
70833;BME280;71099;59.528;17.886;2024-02-26T08:09:12;100584.78;;;2.29;100.00
70833;BME280;71099;59.528;17.886;2024-02-26T08:11:38;100579.78;;;2.42;100.00
70833;BME280;71099;59.528;17.886;2024-02-26T08:14:04;100586.13;;;2.49;100.00
70833;BME280;71099;59.528;17.886;2024-02-26T08:16:30;100581.47;;;2.56;100.00
70833;BME280;71099;59.528;17.886;2024-02-26T08:18:55;100581.91;;;2.62;100.00
70833;BME280;71099;59.528;17.886;2024-02-26T08:21:20;100581.22;;;2.73;100.00
70833;BME280;71099;59.528;17.886;2024-02-26T08:23:46;100589.50;;;2.76;100.00
70833;BME280;71099;59.528;17.886;2024-02-26T08:26:11;100586.28;;;2.87;100.00
70833;BME280;71099;59.528;17.886;2024-02-26T08:28:37;100585.72;;;2.96;100.00
70833;BME280;71099;59.528;17.886;2024-02-26T08:31:03;100589.59;;;3.02;99.59
70833;BME280;71099;59.528;17.886;2024-02-26T08:33:29;100600.63;;;3.02;99.38
70833;BME280;71099;59.528;17.886;2024-02-26T08:35:56;100599.94;;;3.13;99.28
70833;BME280;71099;59.528;17.886;2024-02-26T08:38:21;100605.16;;;3.24;98.53
70833;BME280;71099;59.528;17.886;2024-02-26T08:40:47;100610.59;;;3.32;98.39
70833;BME280;71099;59.528;17.886;2024-02-26T08:43:12;100612.56;;;3.41;98.02
70833;BME280;71099;59.528;17.886;2024-02-26T08:45:38;100611.97;;;3.50;97.04
70833;BME280;71099;59.528;17.886;2024-02-26T08:48:03;100613.41;;;3.54;97.38
70833;BME280;71099;59.528;17.886;2024-02-26T08:50:29;100618.81;;;3.62;96.48
70833;BME280;71099;59.528;17.886;2024-02-26T08:52:54;100610.34;;;3.74;95.87
70833;BME280;71099;59.528;17.886;2024-02-26T08:55:19;100619.16;;;3.83;95.76
70833;BME280;71099;59.528;17.886;2024-02-26T08:57:45;100615.16;;;3.91;95.17
70833;BME280;71099;59.528;17.886;2024-02-26T09:00:11;100616.41;;;3.99;94.96
70833;BME280;71099;59.528;17.886;2024-02-26T09:02:37;100612.19;;;3.98;94.38
70833;BME280;71099;59.528;17.886;2024-02-26T09:05:07;100614.44;;;4.02;94.25
70833;BME280;71099;59.528;17.886;2024-02-26T09:07:33;100626.91;;;4.07;92.89
70833;BME280;71099;59.528;17.886;2024-02-26T09:09:58;100616.28;;;3.87;92.57
70833;BME280;71099;59.528;17.886;2024-02-26T09:12:24;100629.97;;;3.74;92.29
70833;BME280;71099;59.528;17.886;2024-02-26T09:14:49;100626.09;;;3.93;92.56
70833;BME280;71099;59.528;17.886;2024-02-26T09:17:15;100630.38;;;4.06;92.55
70833;BME280;71099;59.528;17.886;2024-02-26T09:19:40;100634.84;;;4.15;92.48
70833;BME280;71099;59.528;17.886;2024-02-26T09:22:07;100634.16;;;4.13;92.00
70833;BME280;71099;59.528;17.886;2024-02-26T09:24:32;100638.97;;;4.17;91.88
70833;BME280;71099;59.528;17.886;2024-02-26T09:26:58;100635.56;;;4.29;91.89
70833;BME280;71099;59.528;17.886;2024-02-26T09:29:24;100637.84;;;3.96;91.49
70833;BME280;71099;59.528;17.886;2024-02-26T09:31:51;100642.53;;;4.15;91.87
70833;BME280;71099;59.528;17.886;2024-02-26T09:34:17;100645.69;;;4.31;91.65
70833;BME280;71099;59.528;17.886;2024-02-26T09:36:43;100644.88;;;4.43;92.16
70833;BME280;71099;59.528;17.886;2024-02-26T09:39:08;100642.59;;;4.51;90.77
70833;BME280;71099;59.528;17.886;2024-02-26T09:41:37;100633.19;;;4.52;89.86
70833;BME280;71099;59.528;17.886;2024-02-26T09:44:04;100639.78;;;4.18;91.15
70833;BME280;71099;59.528;17.886;2024-02-26T09:46:30;100638.72;;;4.33;92.28
70833;BME280;71099;59.528;17.886;2024-02-26T09:48:56;100632.78;;;4.45;91.26
70833;BME280;71099;59.528;17.886;2024-02-26T09:51:24;100631.88;;;4.46;90.81
70833;BME280;71099;59.528;17.886;2024-02-26T09:53:53;100632.16;;;4.54;90.81
70833;BME280;71099;59.528;17.886;2024-02-26T09:56:20;100635.63;;;4.53;90.64
70833;BME280;71099;59.528;17.886;2024-02-26T09:58:47;100638.50;;;4.49;90.35
70833;BME280;71099;59.528;17.886;2024-02-26T10:01:19;100639.44;;;4.35;91.95
70833;BME280;71099;59.528;17.886;2024-02-26T10:03:52;100637.69;;;4.48;91.71
70833;BME280;71099;59.528;17.886;2024-02-26T10:06:20;100639.03;;;4.54;91.57
70833;BME280;71099;59.528;17.886;2024-02-26T10:08:46;100640.22;;;4.61;91.20
70833;BME280;71099;59.528;17.886;2024-02-26T10:11:13;100634.59;;;4.68;90.85
70833;BME280;71099;59.528;17.886;2024-02-26T10:13:39;100638.13;;;4.78;90.86
70833;BME280;71099;59.528;17.886;2024-02-26T10:16:06;100643.75;;;4.83;90.38
70833;BME280;71099;59.528;17.886;2024-02-26T10:18:49;100640.06;;;4.87;89.60
70833;BME280;71099;59.528;17.886;2024-02-26T10:21:18;100637.75;;;4.96;89.42
70833;BME280;71099;59.528;17.886;2024-02-26T10:23:44;100636.16;;;4.95;88.88
70833;BME280;71099;59.528;17.886;2024-02-26T10:26:11;100637.75;;;4.96;89.37
70833;BME280;71099;59.528;17.886;2024-02-26T10:28:42;100631.28;;;5.03;88.87
70833;BME280;71099;59.528;17.886;2024-02-26T10:31:08;100636.78;;;4.85;89.13
70833;BME280;71099;59.528;17.886;2024-02-26T10:33:35;100636.16;;;4.95;90.02
70833;BME280;71099;59.528;17.886;2024-02-26T10:36:05;100636.75;;;4.98;89.55
70833;BME280;71099;59.528;17.886;2024-02-26T10:38:35;100641.84;;;4.98;89.40
70833;BME280;71099;59.528;17.886;2024-02-26T10:41:07;100640.25;;;4.84;90.44
70833;BME280;71099;59.528;17.886;2024-02-26T10:43:38;100636.00;;;4.72;90.23
70833;BME280;71099;59.528;17.886;2024-02-26T10:46:03;100642.53;;;4.76;91.04
70833;BME280;71099;59.528;17.886;2024-02-26T10:48:28;100638.41;;;4.86;90.74
70833;BME280;71099;59.528;17.886;2024-02-26T10:50:54;100628.50;;;4.82;89.93
70833;BME280;71099;59.528;17.886;2024-02-26T10:53:22;100637.97;;;4.92;90.13
70833;BME280;71099;59.528;17.886;2024-02-26T10:56:04;100638.69;;;4.95;89.62
70833;BME280;71099;59.528;17.886;2024-02-26T10:58:31;100636.75;;;4.98;89.55
70833;BME280;71099;59.528;17.886;2024-02-26T11:00:57;100642.94;;;5.07;89.38
70833;BME280;71099;59.528;17.886;2024-02-26T11:03:24;100637.66;;;5.21;88.78
70833;BME280;71099;59.528;17.886;2024-02-26T11:05:50;100639.06;;;5.25;88.50
70833;BME280;71099;59.528;17.886;2024-02-26T11:08:19;100639.81;;;5.38;88.41
70833;BME280;71099;59.528;17.886;2024-02-26T11:10:50;100634.03;;;5.47;88.00
70833;BME280;71099;59.528;17.886;2024-02-26T11:13:18;100636.25;;;5.52;87.78
70833;BME280;71099;59.528;17.886;2024-02-26T11:15:46;100632.22;;;5.60;87.60
70833;BME280;71099;59.528;17.886;2024-02-26T11:18:14;100627.78;;;5.62;87.04
70833;BME280;71099;59.528;17.886;2024-02-26T11:20:40;100627.78;;;5.62;86.73
70833;BME280;71099;59.528;17.886;2024-02-26T11:23:07;100624.22;;;5.65;86.52
70833;BME280;71099;59.528;17.886;2024-02-26T11:25:33;100628.53;;;5.75;86.48
70833;BME280;71099;59.528;17.886;2024-02-26T11:28:01;100621.78;;;5.74;86.24
70833;BME280;71099;59.528;17.886;2024-02-26T11:30:31;100628.75;;;5.72;86.03
70833;BME280;71099;59.528;17.886;2024-02-26T11:32:57;100626.91;;;5.74;85.42
70833;BME280;71099;59.528;17.886;2024-02-26T11:35:23;100621.78;;;5.74;84.86
70833;BME280;71099;59.528;17.886;2024-02-26T11:37:56;100621.06;;;5.72;85.21
70833;BME280;71099;59.528;17.886;2024-02-26T11:40:25;100625.25;;;5.73;85.02
70833;BME280;71099;59.528;17.886;2024-02-26T11:42:51;100630.88;;;5.78;84.69
70833;BME280;71099;59.528;17.886;2024-02-26T11:48:21;100633.88;;;5.83;84.99
70833;BME280;71099;59.528;17.886;2024-02-26T11:50:49;100634.59;;;5.85;83.65
70833;BME280;71099;59.528;17.886;2024-02-26T11:58:35;100643.50;;;5.93;84.89
70833;BME280;71099;59.528;17.886;2024-02-26T12:01:03;100637.44;;;5.94;84.83
70833;BME280;71099;59.528;17.886;2024-02-26T12:03:29;100637.47;;;6.05;84.73
70833;BME280;71099;59.528;17.886;2024-02-26T12:05:56;100640.13;;;5.92;84.19
70833;BME280;71099;59.528;17.886;2024-02-26T12:08:21;100638.38;;;5.93;84.77
70833;BME280;71099;59.528;17.886;2024-02-26T12:10:48;100635.81;;;6.04;84.63
70833;BME280;71099;59.528;17.886;2024-02-26T12:13:17;100640.25;;;6.02;84.54
70833;BME280;71099;59.528;17.886;2024-02-26T12:15:55;100636.41;;;6.07;84.50
70833;BME280;71099;59.528;17.886;2024-02-26T12:18:20;100641.53;;;6.18;83.73
70833;BME280;71099;59.528;17.886;2024-02-26T12:20:46;100642.22;;;6.20;83.66
70833;BME280;71099;59.528;17.886;2024-02-26T12:23:16;100641.66;;;6.28;83.66
70833;BME280;71099;59.528;17.886;2024-02-26T12:25:43;100650.75;;;6.32;83.57
70833;BME280;71099;59.528;17.886;2024-02-26T12:28:14;100637.00;;;6.22;83.70
70833;BME280;71099;59.528;17.886;2024-02-26T12:30:39;100643.28;;;6.29;83.88
70833;BME280;71099;59.528;17.886;2024-02-26T12:33:04;100637.56;;;6.25;83.76
70833;BME280;71099;59.528;17.886;2024-02-26T12:35:31;100645.03;;;6.28;83.83
70833;BME280;71099;59.528;17.886;2024-02-26T12:37:58;100640.97;;;6.26;82.88
70833;BME280;71099;59.528;17.886;2024-02-26T12:40:23;100643.75;;;6.23;83.24
70833;BME280;71099;59.528;17.886;2024-02-26T12:42:49;100648.06;;;6.22;83.20
70833;BME280;71099;59.528;17.886;2024-02-26T12:45:15;100654.00;;;6.23;82.92
70833;BME280;71099;59.528;17.886;2024-02-26T12:47:43;100650.50;;;6.24;83.18
70833;BME280;71099;59.528;17.886;2024-02-26T12:50:09;100651.22;;;6.26;83.02